Time;durP1;ratioP1;P1;durP2;ratioP2;P2;SDS_P1;SDS_P2;PMS_P1;PMS_P2;Temp;Humidity;BMP_temperature;BMP_pressure;BME280_temperature;BME280_humidity;BME280_pressure;Samples;Min_cycle;Max_cycle;Signal;HPM_P1;HPM_P2
2022/05/07 00:03:50;;;;;;;0.05;0.05;;;15.10;99.90;;;13.73;79.98;100558.81;10293359;28;96708;-81
2022/05/07 00:08:53;;;;;;;0.28;0.17;;;15.10;99.90;;;13.74;79.87;100555.16;10327573;28;96744;-81
2022/05/07 00:13:56;;;;;;;0.00;0.00;;;15.10;99.90;;;13.76;80.05;100562.97;10323771;28;98596;-81
2022/05/07 00:18:59;;;;;;;0.00;0.00;;;15.10;99.90;;;13.78;79.93;100555.59;10343061;28;98571;-80
2022/05/07 00:24:03;;;;;;;0.00;0.00;;;15.10;99.90;;;13.81;79.81;100544.56;10355283;28;96581;-81
2022/05/07 00:29:05;;;;;;;0.10;0.10;;;15.20;99.90;;;13.82;79.56;100551.56;10326739;28;97606;-81
2022/05/07 00:34:08;;;;;;;0.00;0.00;;;15.20;99.90;;;13.85;79.52;100545.84;10319502;28;99085;-81
2022/05/07 00:39:11;;;;;;;0.30;0.20;;;15.20;99.90;;;13.90;79.40;100546.13;10341654;28;97681;-81
2022/05/07 00:44:14;;;;;;;0.52;0.15;;;15.30;99.90;;;13.97;78.46;100539.06;10317256;28;96522;-80
2022/05/07 00:49:18;;;;;;;0.20;0.20;;;15.30;99.90;;;14.08;77.95;100535.94;10330846;28;97390;-81
2022/05/07 00:54:23;;;;;;;0.10;0.10;;;15.40;99.90;;;14.17;77.25;100536.72;10310829;28;96833;-81
2022/05/07 00:59:26;;;;;;;0.00;0.00;;;15.50;99.90;;;14.20;76.65;100529.13;10332815;28;97102;-81
2022/05/07 01:04:29;;;;;;;0.00;0.00;;;15.60;99.90;;;14.25;76.07;100530.44;10323376;28;98540;-81
2022/05/07 01:09:37;;;;;;;0.20;0.20;;;15.60;99.90;;;14.31;75.67;100530.53;10359044;28;96532;-81
2022/05/07 01:14:40;;;;;;;0.08;0.08;;;15.70;99.90;;;14.34;75.03;100519.47;10335835;28;98293;-81
2022/05/07 01:19:43;;;;;;;0.30;0.30;;;15.70;99.90;;;14.32;75.18;100518.81;10363779;28;96809;-81
2022/05/07 01:24:46;;;;;;;0.20;0.20;;;15.70;99.90;;;14.29;75.20;100521.03;10329352;28;96905;-80
2022/05/07 01:29:48;;;;;;;0.10;0.10;;;15.70;99.90;;;14.27;75.19;100521.22;10317072;28;96567;-81
2022/05/07 01:34:53;;;;;;;0.20;0.17;;;15.60;99.90;;;14.31;75.21;100524.34;10335181;28;98104;-81
2022/05/07 01:39:56;;;;;;;0.00;0.00;;;15.70;99.90;;;14.27;75.18;100513.19;10332405;28;97331;-81
2022/05/07 01:45:01;;;;;;;0.00;0.00;;;15.70;99.90;;;14.24;75.07;100515.41;10361662;28;96570;-81
2022/05/07 01:50:05;;;;;;;0.00;0.00;;;15.60;99.90;;;14.19;74.98;100522.13;10337240;28;96692;-81
2022/05/07 01:55:08;;;;;;;0.00;0.00;;;15.60;99.90;;;14.18;74.79;100515.13;10354547;28;96576;-81
2022/05/07 02:00:13;;;;;;;0.00;0.00;;;15.60;99.90;;;14.20;74.85;100510.44;10377658;28;97316;-80
2022/05/07 02:05:16;;;;;;;0.00;0.00;;;15.60;99.90;;;14.20;74.56;100513.09;10334167;28;96815;-80
2022/05/07 02:10:19;;;;;;;0.00;0.00;;;15.60;99.90;;;14.22;74.57;100512.09;10326187;28;100451;-81
2022/05/07 02:15:22;;;;;;;0.00;0.00;;;15.60;99.90;;;14.21;74.45;100516.59;10315734;28;96617;-81
2022/05/07 02:20:25;;;;;;;0.00;0.00;;;15.60;99.90;;;14.24;74.19;100515.41;10365518;28;96537;-81
2022/05/07 02:25:28;;;;;;;0.00;0.00;;;15.60;99.90;;;14.23;74.32;100513.75;10337550;28;96610;-81
2022/05/07 02:30:31;;;;;;;0.00;0.00;;;15.60;99.90;;;14.17;74.07;100518.81;10338579;28;97014;-80
2022/05/07 02:35:34;;;;;;;0.03;0.00;;;15.60;99.90;;;14.18;73.81;100511.63;10379745;28;96555;-81
2022/05/07 02:45:58;;;;;;;0.00;0.00;;;15.60;99.90;;;14.12;73.78;100510.53;10343362;28;96712;-81
2022/05/07 02:51:03;;;;;;;0.00;0.00;;;15.60;99.90;;;14.10;73.87;100515.22;10342405;28;98054;-81
2022/05/07 02:56:06;;;;;;;0.00;0.00;;;15.50;99.90;;;14.09;73.95;100516.25;10325223;28;97602;-81
2022/05/07 03:01:09;;;;;;;0.05;0.05;;;15.50;99.90;;;14.08;73.74;100509.22;10305007;28;96545;-81
2022/05/07 03:06:12;;;;;;;0.10;0.10;;;15.50;99.90;;;14.05;73.77;100522.97;10338267;28;96562;-80
2022/05/07 03:11:15;;;;;;;0.05;0.05;;;15.50;99.90;;;14.00;73.93;100517.34;10342136;28;96695;-79
2022/05/07 03:16:19;;;;;;;0.00;0.00;;;15.50;99.90;;;13.97;74.18;100523.03;10329405;28;97368;-80
2022/05/07 03:21:22;;;;;;;0.17;0.17;;;15.40;99.90;;;13.89;73.86;100515.94;10358257;28;96902;-80
2022/05/07 03:26:25;;;;;;;0.00;0.00;;;15.40;99.90;;;13.82;74.61;100520.34;10335670;28;96568;-80
2022/05/07 03:31:27;;;;;;;0.00;0.00;;;15.30;99.90;;;13.75;75.31;100524.75;10329098;28;96619;-80
2022/05/07 03:36:31;;;;;;;0.00;0.00;;;15.20;99.90;;;13.69;75.60;100520.13;10338986;28;96993;-80
2022/05/07 03:41:34;;;;;;;0.00;0.00;;;15.20;99.90;;;13.64;75.74;100525.19;10336246;28;96627;-79
2022/05/07 03:46:37;;;;;;;0.00;0.00;;;15.10;99.90;;;13.58;75.55;100525.91;10341204;28;96666;-80
2022/05/07 03:57:02;;;;;;;0.00;0.00;;;15.00;99.90;;;13.60;75.93;100530.03;10318014;28;97250;-80
2022/05/07 04:02:05;;;;;;;0.00;0.00;;;15.00;99.90;;;13.56;76.16;100534.09;10356621;28;96582;-79
2022/05/07 04:07:14;;;;;;;0.00;0.00;;;15.00;99.90;;;13.58;76.39;100540.06;10377439;28;96505;-80
2022/05/07 04:12:17;;;;;;;0.10;0.07;;;15.00;99.90;;;13.56;76.55;100542.09;10336563;28;97257;-79
2022/05/07 04:17:20;;;;;;;0.08;0.08;;;15.00;99.90;;;13.59;77.14;100549.75;10320464;28;96486;-82
2022/05/07 04:22:23;;;;;;;0.00;0.00;;;15.00;99.90;;;13.66;77.06;100545.34;10335419;28;96655;-80
2022/05/07 04:27:26;;;;;;;0.17;0.17;;;15.10;99.90;;;13.71;77.80;100555.50;10333104;28;98614;-80
2022/05/07 04:32:29;;;;;;;0.10;0.10;;;15.20;99.90;;;13.80;77.71;100569.63;10325051;28;98124;-80
2022/05/07 04:37:32;;;;;;;0.10;0.10;;;15.20;99.90;;;13.84;77.94;100562.88;10319663;28;96842;-80
2022/05/07 04:42:36;;;;;;;0.00;0.00;;;15.30;99.90;;;13.87;77.97;100555.34;10314330;28;97395;-79
2022/05/07 04:47:39;;;;;;;0.00;0.00;;;15.30;99.90;;;13.92;77.88;100563.66;10332550;28;97208;-81
2022/05/07 04:52:42;;;;;;;0.00;0.00;;;15.30;99.90;;;14.00;77.87;100570.78;10337486;28;97537;-81
2022/05/07 04:57:50;;;;;;;0.00;0.00;;;15.40;99.90;;;14.10;77.98;100563.34;10334680;28;96567;-80
2022/05/07 05:02:53;;;;;;;0.03;0.00;;;15.50;99.90;;;14.22;78.29;100565.56;10340233;28;96636;-81
2022/05/07 05:07:56;;;;;;;0.00;0.00;;;15.60;99.90;;;14.32;78.33;100568.78;10336723;28;98083;-81
2022/05/07 05:12:59;;;;;;;0.08;0.08;;;15.70;99.90;;;14.45;78.46;100563.63;10337940;28;97039;-80
2022/05/07 05:18:04;;;;;;;0.00;0.00;;;15.80;99.90;;;14.56;78.36;100565.88;10332890;28;98565;-81
2022/05/07 05:23:07;;;;;;;0.00;0.00;;;15.90;99.90;;;14.66;78.19;100561.06;10315932;28;96957;-81
2022/05/07 05:28:11;;;;;;;0.00;0.00;;;16.00;99.90;;;14.75;77.52;100563.66;10333621;28;97407;-81
2022/05/07 05:33:14;;;;;;;0.75;0.52;;;16.10;99.90;;;14.86;77.91;100576.56;10321887;28;96706;-80
2022/05/07 05:38:17;;;;;;;0.00;0.00;;;16.20;99.90;;;15.04;77.64;100563.59;10300102;28;96507;-80
2022/05/07 05:43:20;;;;;;;0.00;0.00;;;16.30;99.90;;;15.23;77.22;100570.19;10346150;28;98088;-80
2022/05/07 05:48:24;;;;;;;0.00;0.00;;;16.50;99.90;;;15.42;75.21;100568.78;10341406;28;96461;-80
2022/05/07 05:53:26;;;;;;;0.10;0.10;;;16.70;99.90;;;15.61;73.85;100572.66;10306787;28;97209;-80
2022/05/07 05:58:33;;;;;;;0.00;0.00;;;16.90;99.90;;;15.78;72.91;100569.56;10318522;28;96467;-80
2022/05/07 06:03:36;;;;;;;0.00;0.00;;;17.10;99.90;;;15.94;71.77;100568.44;10339935;28;96597;-80
2022/05/07 06:08:38;;;;;;;0.15;0.15;;;17.30;99.90;;;16.05;71.23;100578.63;10341232;28;96677;-80
2022/05/07 06:13:43;;;;;;;0.00;0.00;;;17.40;99.90;;;16.15;70.47;100572.13;10339676;28;97185;-80
2022/05/07 06:18:46;;;;;;;0.10;0.10;;;17.50;99.90;;;16.21;68.73;100580.22;10329401;28;96729;-80
2022/05/07 06:23:49;;;;;;;0.08;0.08;;;17.60;99.90;;;16.29;68.28;100580.06;10299312;28;96549;-80
2022/05/07 06:28:52;;;;;;;0.45;0.40;;;17.70;99.90;;;16.33;66.87;100585.88;10326860;28;96668;-80
2022/05/07 06:33:55;;;;;;;0.08;0.08;;;17.80;99.90;;;16.37;67.39;100587.09;10338914;28;96715;-80
2022/05/07 06:38:57;;;;;;;0.30;0.20;;;17.80;99.90;;;16.36;67.21;100581.94;10313345;28;96675;-80
2022/05/07 06:44:00;;;;;;;0.22;0.22;;;17.80;99.90;;;16.47;67.45;100581.41;10297545;28;96653;-79
2022/05/07 06:49:03;;;;;;;0.00;0.00;;;17.90;99.90;;;16.59;65.93;100585.19;10301855;28;96653;-80
2022/05/07 06:54:07;;;;;;;0.15;0.15;;;18.00;99.90;;;16.68;65.48;100584.03;10297784;28;97617;-79
2022/05/07 06:59:11;;;;;;;0.25;0.25;;;18.10;99.90;;;16.72;64.99;100581.78;10327516;28;96416;-80
2022/05/07 07:04:14;;;;;;;0.28;0.28;;;18.20;99.60;;;16.81;65.84;100577.91;10339606;28;96584;-80
2022/05/07 07:09:18;;;;;;;0.10;0.10;;;18.20;99.90;;;16.96;65.83;100581.28;10336395;28;97552;-80
2022/05/07 07:14:21;;;;;;;0.10;0.10;;;18.30;99.90;;;16.94;64.61;100579.84;10314392;28;96672;-79
2022/05/07 07:19:25;;;;;;;0.10;0.10;;;18.40;99.10;;;17.05;65.28;100573.91;10295973;28;96529;-79
2022/05/07 07:24:27;;;;;;;0.38;0.35;;;18.50;99.30;;;17.09;64.72;100580.50;10295910;28;96533;-79
2022/05/07 07:29:31;;;;;;;2.38;0.30;;;18.50;98.80;;;17.22;65.13;100575.19;10348679;28;96815;-79
2022/05/07 07:34:34;;;;;;;0.55;0.55;;;18.60;98.70;;;17.31;64.40;100578.50;10339707;28;96672;-80
2022/05/07 07:39:37;;;;;;;0.47;0.43;;;18.70;98.30;;;17.46;63.66;100586.41;10338039;28;96614;-79
2022/05/07 07:44:40;;;;;;;0.55;0.47;;;18.80;98.00;;;17.68;63.60;100579.81;10312197;28;97555;-78
2022/05/07 07:49:43;;;;;;;3.70;1.40;;;19.00;97.90;;;17.86;63.59;100581.94;10295295;28;96544;-79
2022/05/07 07:54:46;;;;;;;0.13;0.13;;;19.20;97.10;;;18.05;63.03;100582.97;10333942;28;96590;-79
2022/05/07 07:59:49;;;;;;;0.10;0.10;;;19.40;97.10;;;18.23;62.30;100572.41;10318336;28;98242;-79
2022/05/07 08:04:54;;;;;;;0.00;0.00;;;19.50;96.90;;;18.29;61.57;100571.59;10311713;28;97053;-78
2022/05/07 08:15:18;;;;;;;0.00;0.00;;;19.70;95.60;;;18.48;60.61;100577.97;10319530;28;97212;-89
2022/05/07 08:20:21;;;;;;;0.47;0.47;;;19.80;95.10;;;18.48;60.69;100585.22;10359923;28;96787;-81
2022/05/07 08:25:23;;;;;;;0.08;0.08;;;19.90;94.70;;;18.62;60.71;100576.06;10328793;28;98490;-80
2022/05/07 08:30:28;;;;;;;0.00;0.00;;;19.90;94.80;;;18.82;60.68;100576.84;10295235;28;96813;-81
2022/05/07 08:35:31;;;;;;;0.65;0.63;;;20.10;94.60;;;18.99;59.81;100572.63;10313298;28;97939;-80
2022/05/07 08:40:34;;;;;;;0.20;0.10;;;20.30;93.90;;;19.24;58.66;100578.09;10332037;28;96983;-80
2022/05/07 08:45:41;;;;;;;1.77;1.65;;;20.50;93.00;;;19.23;57.33;100581.84;10327798;28;98560;-81
2022/05/07 08:50:45;;;;;;;0.45;0.45;;;20.50;91.30;;;19.25;56.01;100587.88;10348579;28;97044;-81
2022/05/07 08:55:54;;;;;;;0.63;0.63;;;20.60;90.60;;;19.40;55.80;100584.88;10335673;28;97133;-80
2022/05/07 09:00:59;;;;;;;0.17;0.17;;;20.70;90.50;;;19.54;56.21;100580.22;10320643;28;96695;-80
2022/05/07 09:06:03;;;;;;;0.20;0.20;;;20.90;90.10;;;19.79;55.69;100577.59;10334734;28;96490;-81
2022/05/07 09:11:06;;;;;;;0.75;0.55;;;21.10;89.30;;;19.84;53.54;100576.94;10340287;28;98703;-80
2022/05/07 09:16:09;;;;;;;0.00;0.00;;;21.20;85.90;;;19.86;54.62;100572.16;10328984;28;96962;-80
2022/05/07 09:21:28;;;;;;;0.65;0.57;;;21.20;86.40;;;19.87;54.28;100569.25;10320488;28;97593;-80
2022/05/07 09:26:39;;;;;;;1.30;0.75;;;21.30;85.20;;;19.91;54.86;100575.84;10317025;28;96456;-81
2022/05/07 09:31:43;;;;;;;0.73;0.73;;;21.30;85.30;;;19.89;54.64;100580.63;10293156;28;97714;-80
2022/05/07 09:36:46;;;;;;;0.00;0.00;;;21.30;84.40;;;20.02;55.97;100566.19;10325395;28;97252;-80
2022/05/07 09:41:58;;;;;;;0.13;0.10;;;21.40;85.90;;;20.41;55.46;100565.00;10332960;28;96542;-80
2022/05/07 09:47:01;;;;;;;0.00;0.00;;;21.70;85.90;;;20.57;53.85;100564.47;10335670;28;96466;-80
2022/05/07 09:52:04;;;;;;;0.13;0.13;;;21.80;83.40;;;20.66;54.16;100561.44;10338395;28;96494;-80
2022/05/07 10:03:06;;;;;;;0.47;0.47;;;22.20;82.90;;;21.10;52.95;100541.34;10341429;28;98650;-80
2022/05/07 10:08:25;;;;;;;0.17;0.17;;;22.40;81.50;;;21.40;51.85;100543.25;10381234;28;96433;-80
2022/05/07 10:13:28;;;;;;;0.00;0.00;;;22.70;79.90;;;21.63;51.73;100535.19;10308526;28;96593;-80
2022/05/07 10:18:41;;;;;;;0.30;0.30;;;22.90;79.40;;;21.62;50.39;100539.78;10298521;28;96449;-80
2022/05/07 10:23:52;;;;;;;2.65;0.75;;;23.00;77.80;;;21.36;50.73;100529.41;10330071;28;98504;-79
2022/05/07 10:28:57;;;;;;;0.60;0.60;;;22.80;76.80;;;21.24;51.36;100531.22;10339983;28;96815;-79
2022/05/07 10:34:00;;;;;;;0.65;0.38;;;22.70;77.00;;;21.15;52.26;100524.47;10338389;28;96661;-80
2022/05/07 10:39:09;;;;;;;0.05;0.05;;;22.60;77.70;;;21.03;51.49;100522.53;10340253;28;96525;-80
2022/05/07 10:44:32;;;;;;;0.10;0.10;;;22.50;76.50;;;21.06;51.95;100516.69;10337787;28;96433;-80
2022/05/07 10:49:49;;;;;;;0.05;0.00;;;22.50;75.70;;;21.17;51.65;100511.53;10337719;28;96544;-80
2022/05/07 10:55:07;;;;;;;0.43;0.43;;;22.60;76.80;;;21.24;51.25;100512.28;10297200;28;96395;-80
2022/05/07 11:00:19;;;;;;;0.38;0.10;;;22.60;76.10;;;21.10;51.11;100503.53;10333805;28;97848;-80
2022/05/07 11:05:35;;;;;;;0.17;0.17;;;22.60;75.10;;;20.93;50.99;100503.38;10297638;28;96708;-80
2022/05/07 11:10:39;;;;;;;0.20;0.20;;;22.40;74.70;;;20.80;50.78;100503.50;10297134;28;96618;-80
2022/05/07 11:15:42;;;;;;;0.20;0.20;;;22.30;74.40;;;20.69;51.46;100509.69;10297626;28;96369;-80
2022/05/07 11:20:46;;;;;;;0.85;0.68;;;22.20;74.70;;;20.62;51.44;100500.84;10330662;28;96594;-80
2022/05/07 11:25:49;;;;;;;1.98;0.82;;;22.10;74.80;;;20.52;53.90;100512.19;10297187;28;96629;-79
2022/05/07 11:30:53;;;;;;;0.93;0.70;;;22.00;77.00;;;20.51;55.93;100505.13;10335576;28;96666;-79
2022/05/07 11:36:07;;;;;;;0.15;0.15;;;21.90;79.90;;;20.77;57.51;100493.19;10337389;28;96548;-79
2022/05/07 11:41:14;;;;;;;0.98;0.57;;;22.10;82.10;;;21.13;54.93;100494.97;10324704;28;96495;-79
2022/05/07 11:46:55;;;;;;;0.73;0.73;;;22.40;80.70;;;21.30;53.42;100487.91;10336933;28;96360;-80
2022/05/07 11:52:10;;;;;;;0.05;0.05;;;22.60;79.00;;;21.45;53.19;100492.84;10335057;28;96582;-80
2022/05/07 11:57:13;;;;;;;0.10;0.10;;;22.70;78.30;;;21.67;52.01;100484.19;10330451;28;98701;-79
2022/05/07 12:02:23;;;;;;;1.15;1.05;;;22.90;76.90;;;21.67;51.39;100481.50;10340337;28;96452;-80
2022/05/07 12:07:26;;;;;;;0.00;0.00;;;23.00;75.20;;;22.07;48.90;100474.31;10343552;28;97728;-80
2022/05/07 12:12:29;;;;;;;0.38;0.38;;;23.30;72.80;;;22.35;48.50;100464.63;10320420;28;97443;-80
2022/05/07 12:17:53;;;;;;;0.70;0.45;;;23.60;71.40;;;22.66;47.66;100457.94;10335522;28;96789;-80
2022/05/07 12:33:39;;;;;;;0.13;0.13;;;24.40;67.40;;;23.40;45.21;100442.53;10333375;28;98395;-80
2022/05/07 12:38:43;;;;;;;0.10;0.10;;;24.70;67.10;;;23.69;43.86;100429.72;10336211;28;96382;-80
2022/05/07 12:43:46;;;;;;;0.25;0.25;;;25.00;65.70;;;23.75;44.28;100419.78;10322982;28;96609;-80
2022/05/07 12:48:49;;;;;;;2.08;0.43;;;25.20;65.00;;;23.88;44.88;100419.41;10333297;28;96579;-81
2022/05/07 12:53:54;;;;;;;0.80;0.63;;;25.30;65.30;;;23.80;44.14;100413.56;10339052;28;97856;-80
2022/05/07 12:58:57;;;;;;;1.77;0.73;;;25.30;63.70;;;24.00;43.06;100405.72;10357218;28;98425;-80
2022/05/07 13:04:00;;;;;;;0.28;0.28;;;25.50;62.70;;;24.07;43.83;100400.09;10358561;28;97256;-80
2022/05/07 13:09:04;;;;;;;0.10;0.10;;;25.80;62.90;;;24.40;44.24;100391.03;10322412;28;96949;-80
2022/05/07 13:14:06;;;;;;;0.00;0.00;;;26.20;62.80;;;24.72;42.97;100386.50;10304102;28;97477;-80
2022/05/07 13:19:09;;;;;;;0.20;0.20;;;26.70;61.40;;;24.89;42.67;100378.22;10317237;28;96547;-80
2022/05/07 13:24:14;;;;;;;0.10;0.10;;;27.00;59.30;;;24.44;41.50;100371.25;10328839;28;98502;-81
2022/05/07 13:29:18;;;;;;;4.13;0.45;;;26.90;57.80;;;24.18;41.88;100370.13;10346361;28;96926;-80
2022/05/07 13:34:21;;;;;;;0.15;0.15;;;26.40;58.50;;;23.97;43.02;100370.94;10333242;28;96886;-81
2022/05/07 13:39:23;;;;;;;0.05;0.00;;;26.10;59.60;;;23.69;43.01;100361.91;10350118;28;96722;-81
2022/05/07 13:44:27;;;;;;;3.40;1.08;;;25.70;59.30;;;23.23;43.02;100366.59;10352116;28;98384;-81
2022/05/07 13:49:30;;;;;;;0.20;0.20;;;25.20;58.90;;;22.91;43.71;100362.78;10332020;28;98334;-81
2022/05/07 13:54:33;;;;;;;0.08;0.08;;;24.80;59.80;;;22.73;44.63;100357.56;10315883;28;96688;-81
2022/05/07 13:59:36;;;;;;;0.00;0.00;;;24.40;60.80;;;22.62;44.77;100357.41;10322374;28;96790;-81
2022/05/07 14:04:39;;;;;;;0.00;0.00;;;24.30;60.90;;;22.64;44.74;100347.16;10298802;28;96547;-81
2022/05/07 14:09:47;;;;;;;0.00;0.00;;;24.20;61.00;;;22.67;45.48;100341.25;10299578;28;97335;-82
2022/05/07 14:14:50;;;;;;;0.43;0.43;;;24.20;62.00;;;22.73;45.35;100344.88;10376728;28;96612;-82
2022/05/07 14:19:54;;;;;;;0.00;0.00;;;24.20;61.80;;;23.30;44.91;100333.91;10319359;28;96608;-81
2022/05/07 14:25:00;;;;;;;0.32;0.32;;;24.60;62.40;;;24.27;44.08;100336.00;10326082;28;96934;-82
2022/05/07 14:30:08;;;;;;;0.00;0.00;;;25.30;62.00;;;24.68;42.28;100320.16;10334083;28;96607;-81
2022/05/07 14:35:11;;;;;;;0.20;0.20;;;25.90;60.50;;;24.68;40.19;100312.00;10355652;28;96674;-81
2022/05/07 14:40:28;;;;;;;0.00;0.00;;;26.00;58.50;;;24.95;40.22;100314.69;10338577;28;96600;-80
2022/05/07 14:45:36;;;;;;;0.90;0.73;;;26.10;58.10;;;24.92;39.91;100309.75;10323831;28;97485;-81
2022/05/07 14:50:39;;;;;;;0.00;0.00;;;26.20;57.70;;;25.10;40.49;100303.13;10380231;28;96765;-82
2022/05/07 14:55:41;;;;;;;0.52;0.20;;;26.30;58.00;;;25.06;39.42;100307.44;10322889;28;97681;-81
2022/05/07 15:00:44;;;;;;;0.20;0.20;;;26.40;56.70;;;24.98;39.38;100310.59;10305851;28;96566;-81
2022/05/07 15:05:47;;;;;;;0.88;0.40;;;26.40;56.70;;;24.71;39.05;100305.22;10303408;28;96586;-80
2022/05/07 15:10:50;;;;;;;0.45;0.45;;;26.20;56.00;;;24.33;39.45;100303.47;10297269;28;96700;-80
2022/05/07 15:15:53;;;;;;;1.10;0.28;;;26.00;55.70;;;24.09;40.91;100306.47;10327772;28;97375;-81
2022/05/07 15:20:57;;;;;;;1.00;0.55;;;25.70;56.80;;;23.78;41.52;100299.88;10337371;28;96962;-81
2022/05/07 15:25:59;;;;;;;0.00;0.00;;;25.50;56.90;;;23.34;42.47;100304.41;10334689;28;96601;-80
2022/05/07 15:31:08;;;;;;;0.05;0.05;;;25.10;57.70;;;22.91;44.00;100308.59;10335064;28;97375;-80
2022/05/07 15:41:33;;;;;;;0.00;0.00;;;24.40;58.70;;;22.92;42.91;100304.84;10297296;28;96541;-81
2022/05/07 15:46:36;;;;;;;0.00;0.00;;;24.40;58.60;;;22.83;43.42;100309.00;10295941;28;96741;-79
2022/05/07 15:51:39;;;;;;;0.10;0.10;;;24.30;58.90;;;22.64;44.37;100303.81;10295789;28;96457;-80
2022/05/07 15:56:43;;;;;;;0.50;0.50;;;24.20;59.40;;;22.40;43.00;100297.72;10336895;28;97512;-81
2022/05/07 16:01:45;;;;;;;0.55;0.43;;;24.00;58.80;;;22.22;43.08;100295.19;10375228;28;96651;-81
2022/05/07 16:06:48;;;;;;;0.10;0.10;;;23.80;58.60;;;22.36;43.13;100298.44;10366272;28;96578;-80
2022/05/07 16:12:12;;;;;;;0.00;0.00;;;23.70;59.00;;;22.49;42.84;100300.84;10338696;28;96456;-81
2022/05/07 16:17:16;;;;;;;0.25;0.22;;;23.90;58.70;;;22.59;43.18;100294.78;10333617;28;97630;-80
2022/05/07 16:27:41;;;;;;;0.10;0.10;;;24.00;59.80;;;22.53;42.81;100310.13;10369993;28;96601;-80
2022/05/07 16:32:46;;;;;;;0.47;0.38;;;24.00;58.60;;;22.28;44.08;100315.06;10326859;28;96615;-80
2022/05/07 16:37:49;;;;;;;1.10;0.25;;;23.80;59.50;;;22.07;45.83;100317.38;10343329;28;96551;-79
2022/05/07 16:42:52;;;;;;;0.10;0.10;;;23.70;60.60;;;21.86;46.72;100320.72;10335779;28;97359;-80
2022/05/07 16:47:55;;;;;;;0.03;0.03;;;23.40;61.30;;;21.74;47.51;100318.03;10333570;28;97055;-80
2022/05/07 16:52:58;;;;;;;0.32;0.30;;;23.30;62.10;;;21.65;48.37;100324.84;10336291;28;96704;-81
2022/05/07 16:58:04;;;;;;;0.00;0.00;;;23.20;64.10;;;21.54;49.19;100336.53;10303451;28;97607;-81
2022/05/07 17:03:07;;;;;;;0.00;0.00;;;23.00;65.60;;;21.39;49.96;100342.41;10356881;28;97116;-82
2022/05/07 17:08:10;;;;;;;0.20;0.10;;;22.80;66.80;;;21.24;50.67;100340.13;10314076;28;96549;-82
2022/05/07 17:13:13;;;;;;;0.00;0.00;;;22.60;67.80;;;21.01;50.88;100350.94;10302492;28;96576;-82
2022/05/07 17:18:16;;;;;;;0.05;0.05;;;22.40;67.10;;;20.82;51.55;100350.19;10350765;28;98846;-82
2022/05/07 17:23:19;;;;;;;0.00;0.00;;;22.20;68.60;;;20.58;52.29;100355.50;10370844;28;96633;-82
2022/05/07 17:28:22;;;;;;;0.10;0.10;;;22.00;69.40;;;20.41;52.54;100354.47;10348861;28;97412;-82
2022/05/07 17:33:25;;;;;;;0.20;0.13;;;21.80;69.60;;;20.20;53.03;100358.47;10358190;28;96836;-83
2022/05/07 17:38:28;;;;;;;0.00;0.00;;;21.60;70.10;;;20.02;53.54;100362.00;10331976;28;96793;-81
2022/05/07 17:43:31;;;;;;;0.00;0.00;;;21.40;71.00;;;19.83;54.04;100373.84;10314292;28;97400;-81
2022/05/07 17:53:56;;;;;;;0.17;0.05;;;21.10;71.40;;;19.43;55.17;100373.41;10332459;28;98112;-81
2022/05/07 17:58:59;;;;;;;0.00;0.00;;;20.90;71.30;;;19.20;55.88;100384.81;10337421;28;98476;-81
2022/05/07 18:04:04;;;;;;;0.00;0.00;;;20.70;73.00;;;18.99;56.23;100386.00;10318885;28;98448;-81
2022/05/07 18:09:07;;;;;;;0.00;0.00;;;20.40;73.00;;;18.85;56.63;100387.97;10349280;28;98638;-86
2022/05/07 18:14:10;;;;;;;0.75;0.35;;;20.30;74.40;;;18.63;56.62;100390.13;10348533;28;97081;-87
2022/05/07 18:19:14;;;;;;;0.00;0.00;;;20.10;74.30;;;18.42;58.40;100402.06;10324557;28;96984;-84
2022/05/07 18:24:20;;;;;;;0.03;0.03;;;19.90;76.40;;;18.21;58.72;100407.72;10322151;28;97387;-85
2022/05/07 18:29:24;;;;;;;0.00;0.00;;;19.70;77.60;;;18.04;59.27;100417.28;10316326;28;96602;-84
2022/05/07 18:34:27;;;;;;;0.00;0.00;;;19.40;77.10;;;17.88;60.01;100421.28;10334890;28;97068;-86
2022/05/07 18:44:51;;;;;;;1.48;1.00;;;19.10;79.90;;;17.53;60.66;100447.53;10344751;28;96573;-87
2022/05/07 18:49:54;;;;;;;0.00;0.00;;;18.90;80.70;;;17.47;61.19;100438.44;10348212;28;96692;-86
2022/05/07 18:54:57;;;;;;;0.00;0.00;;;18.80;81.50;;;17.39;61.28;100457.44;10312843;28;97067;-85
2022/05/07 19:00:00;;;;;;;0.00;0.00;;;18.70;82.60;;;17.32;61.58;100462.81;10329590;28;98323;-81
2022/05/07 19:05:05;;;;;;;0.10;0.10;;;18.60;82.80;;;17.23;62.20;100469.41;10349168;28;97493;-81
2022/05/07 19:10:09;;;;;;;0.00;0.00;;;18.50;83.80;;;17.18;61.99;100481.81;10324747;28;98019;-83
2022/05/07 19:15:12;;;;;;;0.10;0.10;;;18.50;83.70;;;17.11;62.32;100479.09;10329949;28;96680;-83
2022/05/07 19:20:17;;;;;;;0.00;0.00;;;18.40;84.20;;;17.07;62.30;100491.28;10304163;28;97072;-82
2022/05/07 19:25:20;;;;;;;0.38;0.22;;;18.40;84.40;;;17.01;62.88;100497.47;10347895;28;96837;-82
2022/05/07 19:30:23;;;;;;;0.08;0.08;;;18.30;85.70;;;16.92;62.96;100498.69;10330448;28;96638;-83
2022/05/07 19:35:27;;;;;;;0.00;0.00;;;18.30;86.40;;;16.81;63.51;100508.13;10345712;28;98880;-82
2022/05/07 19:40:30;;;;;;;0.00;0.00;;;18.20;87.40;;;16.70;63.85;100512.22;10332183;28;96588;-82
2022/05/07 19:45:33;;;;;;;0.15;0.15;;;18.10;88.20;;;16.59;64.37;100510.06;10317303;28;97032;-82
2022/05/07 19:50:36;;;;;;;0.10;0.10;;;17.90;89.40;;;16.47;64.97;100520.53;10325527;28;97303;-82
2022/05/07 19:55:39;;;;;;;0.00;0.00;;;17.80;90.40;;;16.38;65.44;100523.59;10336364;28;96705;-83
2022/05/07 20:00:42;;;;;;;0.20;0.20;;;17.70;91.00;;;16.30;65.56;100521.88;10340341;28;98293;-82
2022/05/07 20:05:44;;;;;;;0.10;0.10;;;17.60;91.60;;;16.24;65.82;100522.66;10310264;28;96638;-82
2022/05/07 20:10:47;;;;;;;0.00;0.00;;;17.50;91.90;;;16.18;65.83;100528.81;10361319;28;97773;-82
2022/05/07 20:15:50;;;;;;;0.00;0.00;;;17.40;92.50;;;16.10;66.31;100524.44;10339640;28;96962;-83
2022/05/07 20:26:14;;;;;;;0.00;0.00;;;17.40;93.00;;;16.02;66.53;100535.31;10313709;28;96606;-84
2022/05/07 20:31:17;;;;;;;0.10;0.10;;;17.30;93.40;;;15.97;66.48;100537.75;10340213;28;97213;-83
2022/05/07 20:36:20;;;;;;;0.00;0.00;;;17.20;93.50;;;15.97;66.49;100533.22;10332559;28;99199;-83
2022/05/07 20:41:23;;;;;;;0.00;0.00;;;17.20;93.50;;;15.97;66.54;100538.59;10323821;28;96578;-82
2022/05/07 20:46:26;;;;;;;0.03;0.03;;;17.30;93.80;;;15.98;66.27;100542.91;10339251;28;96573;-82
2022/05/07 20:51:32;;;;;;;0.00;0.00;;;17.30;93.30;;;16.00;66.20;100553.44;10338547;28;96943;-81
2022/05/07 20:56:36;;;;;;;2.92;0.20;;;17.30;93.50;;;15.99;66.15;100557.97;10351105;28;98736;-83
2022/05/07 21:01:39;;;;;;;0.00;0.00;;;17.30;93.50;;;15.97;66.07;100554.66;10348067;28;98008;-82
2022/05/07 21:06:44;;;;;;;0.00;0.00;;;17.30;93.50;;;15.94;66.05;100552.38;10331539;28;96655;-82
2022/05/07 21:11:48;;;;;;;0.00;0.00;;;17.30;93.50;;;15.87;66.18;100556.03;10316881;28;98316;-85
2022/05/07 21:16:50;;;;;;;0.00;0.00;;;17.20;93.70;;;15.77;66.48;100564.38;10333746;28;96649;-83
2022/05/07 21:21:53;;;;;;;0.00;0.00;;;17.10;94.00;;;15.61;66.76;100557.41;10339714;28;96871;-81
2022/05/07 21:26:56;;;;;;;0.43;0.15;;;17.10;94.30;;;15.52;67.41;100569.25;10333668;28;97958;-81
2022/05/07 21:31:59;;;;;;;0.00;0.00;;;17.00;94.70;;;15.39;67.70;100575.31;10322722;28;96597;-81
2022/05/07 21:37:03;;;;;;;0.00;0.00;;;16.80;95.20;;;15.21;68.51;100581.09;10337128;28;96644;-81
2022/05/07 21:42:06;;;;;;;0.10;0.10;;;16.70;95.50;;;15.10;69.02;100584.25;10313873;28;96562;-81
2022/05/07 21:47:12;;;;;;;0.00;0.00;;;16.50;96.40;;;14.94;69.23;100581.81;10321778;28;96652;-81
2022/05/07 21:52:16;;;;;;;0.00;0.00;;;16.40;96.90;;;14.79;69.41;100583.66;10325347;28;98571;-81